sensor_id;sensor_type;location;lat;lon;timestamp;pressure;altitude;pressure_sealevel;temperature;humidity
10518;BME280;5307;42.548;22.968;2023-02-14T00:00:09;95246.88;;;-2.29;96.98
10518;BME280;5307;42.548;22.968;2023-02-14T00:02:36;95244.91;;;-2.20;97.46
10518;BME280;5307;42.548;22.968;2023-02-14T00:05:03;95241.59;;;-2.50;96.95
10518;BME280;5307;42.548;22.968;2023-02-14T00:07:30;95244.56;;;-2.64;98.06
10518;BME280;5307;42.548;22.968;2023-02-14T00:09:57;95243.75;;;-2.31;98.80
10518;BME280;5307;42.548;22.968;2023-02-14T00:12:24;95254.63;;;-2.49;98.07
10518;BME280;5307;42.548;22.968;2023-02-14T00:14:50;95252.53;;;-2.76;98.67
10518;BME280;5307;42.548;22.968;2023-02-14T00:17:36;95254.25;;;-2.59;99.28
10518;BME280;5307;42.548;22.968;2023-02-14T00:20:04;95252.81;;;-2.57;98.97
10518;BME280;5307;42.548;22.968;2023-02-14T00:22:31;95248.84;;;-2.51;98.92
10518;BME280;5307;42.548;22.968;2023-02-14T00:24:57;95253.81;;;-2.61;98.91
10518;BME280;5307;42.548;22.968;2023-02-14T00:27:24;95248.97;;;-2.68;98.87
10518;BME280;5307;42.548;22.968;2023-02-14T00:29:51;95254.09;;;-2.75;98.64
10518;BME280;5307;42.548;22.968;2023-02-14T00:32:19;95253.75;;;-2.74;98.74
10518;BME280;5307;42.548;22.968;2023-02-14T00:34:47;95239.53;;;-2.65;99.05
10518;BME280;5307;42.548;22.968;2023-02-14T00:37:14;95242.81;;;-2.48;98.50
10518;BME280;5307;42.548;22.968;2023-02-14T00:39:40;95232.38;;;-2.74;99.00
10518;BME280;5307;42.548;22.968;2023-02-14T00:42:07;95247.19;;;-2.76;99.51
10518;BME280;5307;42.548;22.968;2023-02-14T00:44:34;95245.09;;;-2.37;98.66
10518;BME280;5307;42.548;22.968;2023-02-14T00:47:02;95242.53;;;-2.67;98.46
10518;BME280;5307;42.548;22.968;2023-02-14T00:49:29;95242.31;;;-2.62;98.51
10518;BME280;5307;42.548;22.968;2023-02-14T00:51:57;95237.59;;;-2.77;98.41
10518;BME280;5307;42.548;22.968;2023-02-14T00:54:24;95236.91;;;-2.53;98.01
10518;BME280;5307;42.548;22.968;2023-02-14T00:56:52;95240.09;;;-2.60;97.53
10518;BME280;5307;42.548;22.968;2023-02-14T00:59:19;95240.03;;;-2.51;97.40
10518;BME280;5307;42.548;22.968;2023-02-14T01:01:45;95242.38;;;-2.71;98.41
10518;BME280;5307;42.548;22.968;2023-02-14T01:04:12;95227.78;;;-2.73;99.01
10518;BME280;5307;42.548;22.968;2023-02-14T01:06:39;95224.31;;;-2.53;98.63
10518;BME280;5307;42.548;22.968;2023-02-14T01:09:07;95223.16;;;-2.64;97.89
10518;BME280;5307;42.548;22.968;2023-02-14T01:11:34;95226.03;;;-2.69;98.27
10518;BME280;5307;42.548;22.968;2023-02-14T01:14:01;95224.66;;;-2.75;98.26
10518;BME280;5307;42.548;22.968;2023-02-14T01:16:28;95222.41;;;-2.85;98.79
10518;BME280;5307;42.548;22.968;2023-02-14T01:18:58;95219.47;;;-2.92;99.74
10518;BME280;5307;42.548;22.968;2023-02-14T01:21:27;95217.75;;;-2.76;99.82
10518;BME280;5307;42.548;22.968;2023-02-14T01:23:56;95212.88;;;-2.74;99.35
10518;BME280;5307;42.548;22.968;2023-02-14T01:26:25;95210.25;;;-2.83;99.33
10518;BME280;5307;42.548;22.968;2023-02-14T01:28:52;95207.34;;;-2.90;100.00
10518;BME280;5307;42.548;22.968;2023-02-14T01:31:21;95208.09;;;-2.69;100.00
10518;BME280;5307;42.548;22.968;2023-02-14T01:33:48;95197.22;;;-2.63;100.00
10518;BME280;5307;42.548;22.968;2023-02-14T01:36:17;95198.75;;;-2.62;99.95
10518;BME280;5307;42.548;22.968;2023-02-14T01:38:44;95195.06;;;-2.70;99.84
10518;BME280;5307;42.548;22.968;2023-02-14T01:41:12;95186.69;;;-2.69;99.56
10518;BME280;5307;42.548;22.968;2023-02-14T01:43:52;95195.31;;;-2.63;100.00
10518;BME280;5307;42.548;22.968;2023-02-14T01:46:19;95204.31;;;-2.67;100.00
10518;BME280;5307;42.548;22.968;2023-02-14T01:48:46;95206.78;;;-2.62;99.92
10518;BME280;5307;42.548;22.968;2023-02-14T01:51:15;95204.06;;;-2.75;99.92
10518;BME280;5307;42.548;22.968;2023-02-14T01:53:44;95195.22;;;-2.54;100.00
10518;BME280;5307;42.548;22.968;2023-02-14T01:56:15;95192.44;;;-2.46;100.00
10518;BME280;5307;42.548;22.968;2023-02-14T01:58:44;95193.50;;;-2.71;100.00
10518;BME280;5307;42.548;22.968;2023-02-14T02:01:15;95194.22;;;-2.50;100.00
10518;BME280;5307;42.548;22.968;2023-02-14T02:03:46;95181.66;;;-2.49;100.00
10518;BME280;5307;42.548;22.968;2023-02-14T02:06:16;95171.38;;;-2.47;100.00
10518;BME280;5307;42.548;22.968;2023-02-14T02:08:50;95179.31;;;-2.51;99.85
10518;BME280;5307;42.548;22.968;2023-02-14T02:11:20;95183.75;;;-2.88;99.26
10518;BME280;5307;42.548;22.968;2023-02-14T02:13:46;95177.34;;;-3.08;98.82
10518;BME280;5307;42.548;22.968;2023-02-14T02:16:30;95174.91;;;-3.01;98.65
10518;BME280;5307;42.548;22.968;2023-02-14T02:19:16;95180.38;;;-2.97;97.40
10518;BME280;5307;42.548;22.968;2023-02-14T02:22:16;95179.59;;;-2.97;97.15
10518;BME280;5307;42.548;22.968;2023-02-14T02:24:55;95182.72;;;-2.95;96.75
10518;BME280;5307;42.548;22.968;2023-02-14T02:27:44;95168.50;;;-2.87;96.42
10518;BME280;5307;42.548;22.968;2023-02-14T02:36:29;95181.13;;;-2.76;96.28
10518;BME280;5307;42.548;22.968;2023-02-14T02:39:11;95172.53;;;-2.81;96.37
10518;BME280;5307;42.548;22.968;2023-02-14T02:41:53;95158.34;;;-2.94;96.43
10518;BME280;5307;42.548;22.968;2023-02-14T02:44:28;95157.59;;;-2.82;97.32
10518;BME280;5307;42.548;22.968;2023-02-14T02:47:01;95131.44;;;-2.77;97.51
10518;BME280;5307;42.548;22.968;2023-02-14T02:49:40;95141.88;;;-2.84;97.68
10518;BME280;5307;42.548;22.968;2023-02-14T02:52:35;95149.81;;;-2.75;97.97
10518;BME280;5307;42.548;22.968;2023-02-14T02:55:24;95142.69;;;-2.71;97.71
10518;BME280;5307;42.548;22.968;2023-02-14T02:57:55;95143.13;;;-2.69;97.50
10518;BME280;5307;42.548;22.968;2023-02-14T03:00:22;95149.75;;;-2.66;96.30
10518;BME280;5307;42.548;22.968;2023-02-14T03:02:51;95145.44;;;-2.92;96.03
10518;BME280;5307;42.548;22.968;2023-02-14T03:05:37;95156.66;;;-2.99;96.81
10518;BME280;5307;42.548;22.968;2023-02-14T03:08:09;95147.72;;;-3.03;97.53
10518;BME280;5307;42.548;22.968;2023-02-14T03:10:38;95159.34;;;-2.86;97.83
10518;BME280;5307;42.548;22.968;2023-02-14T03:16:21;95150.22;;;-2.85;99.59
10518;BME280;5307;42.548;22.968;2023-02-14T03:19:20;95146.59;;;-2.81;99.26
10518;BME280;5307;42.548;22.968;2023-02-14T03:22:18;95142.78;;;-3.13;99.08
10518;BME280;5307;42.548;22.968;2023-02-14T03:24:55;95143.59;;;-2.79;98.87
10518;BME280;5307;42.548;22.968;2023-02-14T03:27:26;95134.47;;;-3.32;98.18
10518;BME280;5307;42.548;22.968;2023-02-14T03:30:03;95148.84;;;-3.24;97.32
10518;BME280;5307;42.548;22.968;2023-02-14T03:32:38;95155.03;;;-3.12;97.56
10518;BME280;5307;42.548;22.968;2023-02-14T03:35:14;95137.00;;;-3.15;97.09
10518;BME280;5307;42.548;22.968;2023-02-14T03:37:48;95127.25;;;-2.99;97.17
10518;BME280;5307;42.548;22.968;2023-02-14T03:40:21;95124.53;;;-3.11;96.77
10518;BME280;5307;42.548;22.968;2023-02-14T03:42:51;95124.75;;;-3.16;96.43
10518;BME280;5307;42.548;22.968;2023-02-14T03:45:24;95114.91;;;-3.24;96.36
10518;BME280;5307;42.548;22.968;2023-02-14T03:47:55;95110.72;;;-3.13;97.61
10518;BME280;5307;42.548;22.968;2023-02-14T03:50:24;95113.44;;;-3.34;98.09
10518;BME280;5307;42.548;22.968;2023-02-14T03:52:55;95116.44;;;-3.35;98.25
10518;BME280;5307;42.548;22.968;2023-02-14T03:55:30;95116.88;;;-3.54;99.20
10518;BME280;5307;42.548;22.968;2023-02-14T03:58:05;95114.41;;;-3.38;100.00
10518;BME280;5307;42.548;22.968;2023-02-14T04:00:35;95113.34;;;-3.25;99.82
10518;BME280;5307;42.548;22.968;2023-02-14T04:03:05;95121.13;;;-3.32;98.81
10518;BME280;5307;42.548;22.968;2023-02-14T04:05:36;95108.56;;;-3.32;99.74
10518;BME280;5307;42.548;22.968;2023-02-14T04:08:07;95115.38;;;-3.22;99.94
10518;BME280;5307;42.548;22.968;2023-02-14T04:10:35;95115.44;;;-3.31;99.66
10518;BME280;5307;42.548;22.968;2023-02-14T04:13:04;95118.88;;;-3.09;99.70
10518;BME280;5307;42.548;22.968;2023-02-14T04:15:31;95111.72;;;-3.38;100.00
10518;BME280;5307;42.548;22.968;2023-02-14T04:17:57;95119.16;;;-3.44;100.00
10518;BME280;5307;42.548;22.968;2023-02-14T04:20:42;95113.78;;;-3.35;100.00
10518;BME280;5307;42.548;22.968;2023-02-14T04:23:08;95111.72;;;-3.38;100.00
10518;BME280;5307;42.548;22.968;2023-02-14T04:25:37;95112.00;;;-3.31;100.00
10518;BME280;5307;42.548;22.968;2023-02-14T04:28:07;95119.34;;;-3.28;100.00
10518;BME280;5307;42.548;22.968;2023-02-14T04:30:34;95111.88;;;-3.35;100.00
10518;BME280;5307;42.548;22.968;2023-02-14T04:33:02;95107.19;;;-3.38;100.00
10518;BME280;5307;42.548;22.968;2023-02-14T04:35:30;95095.88;;;-3.55;100.00
10518;BME280;5307;42.548;22.968;2023-02-14T04:37:57;95102.38;;;-3.44;100.00
10518;BME280;5307;42.548;22.968;2023-02-14T04:40:23;95099.66;;;-3.56;100.00
10518;BME280;5307;42.548;22.968;2023-02-14T04:42:52;95102.94;;;-3.39;100.00
10518;BME280;5307;42.548;22.968;2023-02-14T04:45:19;95100.59;;;-3.40;100.00
10518;BME280;5307;42.548;22.968;2023-02-14T04:47:46;95099.75;;;-3.32;100.00
10518;BME280;5307;42.548;22.968;2023-02-14T04:50:13;95103.25;;;-3.19;100.00
10518;BME280;5307;42.548;22.968;2023-02-14T04:52:40;95094.38;;;-3.11;100.00
10518;BME280;5307;42.548;22.968;2023-02-14T04:55:08;95102.03;;;-3.10;100.00
10518;BME280;5307;42.548;22.968;2023-02-14T04:57:36;95095.81;;;-3.14;100.00
10518;BME280;5307;42.548;22.968;2023-02-14T05:00:05;95097.53;;;-3.30;100.00
10518;BME280;5307;42.548;22.968;2023-02-14T05:02:32;95091.06;;;-3.08;100.00
10518;BME280;5307;42.548;22.968;2023-02-14T05:04:59;95091.16;;;-3.05;100.00
10518;BME280;5307;42.548;22.968;2023-02-14T05:07:26;95084.81;;;-3.00;99.50
10518;BME280;5307;42.548;22.968;2023-02-14T05:09:53;95074.50;;;-2.89;99.59
10518;BME280;5307;42.548;22.968;2023-02-14T05:12:20;95079.84;;;-2.89;98.53
10518;BME280;5307;42.548;22.968;2023-02-14T05:14:47;95090.09;;;-2.91;98.98
10518;BME280;5307;42.548;22.968;2023-02-14T05:17:15;95079.28;;;-2.95;98.47
10518;BME280;5307;42.548;22.968;2023-02-14T05:19:42;95080.06;;;-2.82;98.18
10518;BME280;5307;42.548;22.968;2023-02-14T05:22:08;95081.19;;;-2.95;97.77
10518;BME280;5307;42.548;22.968;2023-02-14T05:24:35;95077.09;;;-2.81;98.26
10518;BME280;5307;42.548;22.968;2023-02-14T05:27:02;95092.81;;;-2.67;98.72
10518;BME280;5307;42.548;22.968;2023-02-14T05:29:29;95080.53;;;-2.68;98.37
10518;BME280;5307;42.548;22.968;2023-02-14T05:31:56;95079.44;;;-2.67;98.09
10518;BME280;5307;42.548;22.968;2023-02-14T05:34:24;95087.34;;;-2.71;97.88
10518;BME280;5307;42.548;22.968;2023-02-14T05:36:51;95087.69;;;-2.60;98.06
10518;BME280;5307;42.548;22.968;2023-02-14T05:39:19;95094.16;;;-2.49;97.72
10518;BME280;5307;42.548;22.968;2023-02-14T05:41:46;95091.25;;;-2.44;98.36
10518;BME280;5307;42.548;22.968;2023-02-14T05:44:13;95074.53;;;-2.41;97.65
10518;BME280;5307;42.548;22.968;2023-02-14T05:46:39;95086.59;;;-2.47;97.34
10518;BME280;5307;42.548;22.968;2023-02-14T05:49:07;95091.72;;;-2.42;97.71
10518;BME280;5307;42.548;22.968;2023-02-14T05:54:13;95085.25;;;-2.65;98.07
10518;BME280;5307;42.548;22.968;2023-02-14T05:56:39;95090.31;;;-2.84;98.21
10518;BME280;5307;42.548;22.968;2023-02-14T05:59:06;95089.25;;;-2.59;98.15
10518;BME280;5307;42.548;22.968;2023-02-14T06:01:33;95086.25;;;-2.57;98.49
10518;BME280;5307;42.548;22.968;2023-02-14T06:04:00;95078.34;;;-2.42;98.55
10518;BME280;5307;42.548;22.968;2023-02-14T06:06:27;95088.94;;;-2.45;98.24
10518;BME280;5307;42.548;22.968;2023-02-14T06:08:55;95090.81;;;-2.46;97.46
10518;BME280;5307;42.548;22.968;2023-02-14T06:11:22;95082.91;;;-2.42;97.43
10518;BME280;5307;42.548;22.968;2023-02-14T06:13:48;95081.44;;;-2.64;97.40
10518;BME280;5307;42.548;22.968;2023-02-14T06:16:15;95086.13;;;-2.61;97.24
10518;BME280;5307;42.548;22.968;2023-02-14T06:18:42;95089.69;;;-2.69;96.15
10518;BME280;5307;42.548;22.968;2023-02-14T06:21:09;95092.16;;;-2.40;96.12
10518;BME280;5307;42.548;22.968;2023-02-14T06:26:06;95082.03;;;-2.46;94.91
10518;BME280;5307;42.548;22.968;2023-02-14T06:28:33;95088.81;;;-2.49;94.76
10518;BME280;5307;42.548;22.968;2023-02-14T06:31:00;95088.38;;;-2.51;94.50
10518;BME280;5307;42.548;22.968;2023-02-14T06:33:27;95093.38;;;-2.61;94.97
10518;BME280;5307;42.548;22.968;2023-02-14T06:35:54;95082.78;;;-2.70;95.15
10518;BME280;5307;42.548;22.968;2023-02-14T06:38:20;95103.06;;;-2.57;95.41
10518;BME280;5307;42.548;22.968;2023-02-14T06:40:47;95098.94;;;-2.42;95.17
10518;BME280;5307;42.548;22.968;2023-02-14T06:43:15;95099.41;;;-2.28;95.18
10518;BME280;5307;42.548;22.968;2023-02-14T06:45:42;95095.16;;;-2.29;94.61
10518;BME280;5307;42.548;22.968;2023-02-14T06:48:09;95093.41;;;-2.25;94.60
10518;BME280;5307;42.548;22.968;2023-02-14T06:50:36;95093.84;;;-2.35;95.01
10518;BME280;5307;42.548;22.968;2023-02-14T06:53:03;95085.91;;;-2.19;95.60
10518;BME280;5307;42.548;22.968;2023-02-14T06:55:30;95097.84;;;-2.17;95.71
10518;BME280;5307;42.548;22.968;2023-02-14T06:57:57;95092.81;;;-2.06;95.90
10518;BME280;5307;42.548;22.968;2023-02-14T07:00:25;95088.34;;;-1.90;97.23
10518;BME280;5307;42.548;22.968;2023-02-14T07:02:52;95086.44;;;-1.77;97.77
10518;BME280;5307;42.548;22.968;2023-02-14T07:05:19;95076.53;;;-1.48;97.94
10518;BME280;5307;42.548;22.968;2023-02-14T07:07:46;95083.16;;;-1.70;97.41
10518;BME280;5307;42.548;22.968;2023-02-14T07:10:13;95076.47;;;-1.64;97.57
10518;BME280;5307;42.548;22.968;2023-02-14T07:12:40;95080.25;;;-1.53;97.61
10518;BME280;5307;42.548;22.968;2023-02-14T07:15:09;95080.25;;;-1.53;97.76
10518;BME280;5307;42.548;22.968;2023-02-14T07:17:37;95082.25;;;-1.62;98.46
10518;BME280;5307;42.548;22.968;2023-02-14T07:20:05;95077.59;;;-1.65;98.75
10518;BME280;5307;42.548;22.968;2023-02-14T07:22:33;95072.16;;;-1.81;99.93
10518;BME280;5307;42.548;22.968;2023-02-14T07:25:00;95069.25;;;-1.88;100.00
10518;BME280;5307;42.548;22.968;2023-02-14T07:27:27;95078.56;;;-2.22;100.00
10518;BME280;5307;42.548;22.968;2023-02-14T07:29:54;95076.19;;;-1.99;100.00
10518;BME280;5307;42.548;22.968;2023-02-14T07:32:21;95073.50;;;-1.99;100.00
10518;BME280;5307;42.548;22.968;2023-02-14T07:34:49;95079.22;;;-2.01;100.00
10518;BME280;5307;42.548;22.968;2023-02-14T07:37:17;95071.03;;;-1.80;100.00
10518;BME280;5307;42.548;22.968;2023-02-14T07:39:44;95081.84;;;-1.76;100.00
10518;BME280;5307;42.548;22.968;2023-02-14T07:42:11;95078.16;;;-1.84;100.00
10518;BME280;5307;42.548;22.968;2023-02-14T07:44:38;95069.47;;;-1.69;100.00
10518;BME280;5307;42.548;22.968;2023-02-14T07:47:05;95070.31;;;-1.53;100.00
10518;BME280;5307;42.548;22.968;2023-02-14T07:49:32;95065.81;;;-1.48;100.00
10518;BME280;5307;42.548;22.968;2023-02-14T07:52:02;95075.59;;;-1.68;100.00
10518;BME280;5307;42.548;22.968;2023-02-14T07:54:29;95076.69;;;-1.69;100.00
10518;BME280;5307;42.548;22.968;2023-02-14T07:56:56;95080.59;;;-1.67;100.00
10518;BME280;5307;42.548;22.968;2023-02-14T07:59:23;95075.25;;;-1.67;100.00
10518;BME280;5307;42.548;22.968;2023-02-14T08:01:49;95087.19;;;-1.64;100.00
10518;BME280;5307;42.548;22.968;2023-02-14T08:04:16;95081.38;;;-1.66;100.00
10518;BME280;5307;42.548;22.968;2023-02-14T08:06:44;95091.94;;;-1.58;100.00
10518;BME280;5307;42.548;22.968;2023-02-14T08:09:12;95092.78;;;-1.41;100.00
10518;BME280;5307;42.548;22.968;2023-02-14T08:11:51;95078.06;;;-1.75;100.00
10518;BME280;5307;42.548;22.968;2023-02-14T08:14:35;95083.00;;;-1.50;100.00
10518;BME280;5307;42.548;22.968;2023-02-14T08:17:03;95083.84;;;-1.33;100.00
10518;BME280;5307;42.548;22.968;2023-02-14T08:19:31;95070.41;;;-1.49;100.00
10518;BME280;5307;42.548;22.968;2023-02-14T08:21:58;95091.75;;;-1.25;100.00
10518;BME280;5307;42.548;22.968;2023-02-14T08:24:28;95094.94;;;-1.19;100.00
10518;BME280;5307;42.548;22.968;2023-02-14T08:26:55;95093.00;;;-1.34;100.00
10518;BME280;5307;42.548;22.968;2023-02-14T08:29:22;95099.22;;;-1.30;100.00
10518;BME280;5307;42.548;22.968;2023-02-14T08:31:49;95097.19;;;-1.21;100.00
10518;BME280;5307;42.548;22.968;2023-02-14T08:34:17;95091.69;;;-1.12;100.00
10518;BME280;5307;42.548;22.968;2023-02-14T08:36:44;95084.34;;;-1.00;100.00
10518;BME280;5307;42.548;22.968;2023-02-14T08:39:11;95094.47;;;-1.09;100.00
10518;BME280;5307;42.548;22.968;2023-02-14T08:41:40;95094.66;;;-1.02;100.00
10518;BME280;5307;42.548;22.968;2023-02-14T08:44:06;95087.72;;;-1.03;100.00
10518;BME280;5307;42.548;22.968;2023-02-14T08:46:33;95090.84;;;-1.01;100.00
10518;BME280;5307;42.548;22.968;2023-02-14T08:49:00;95096.31;;;-0.97;100.00
10518;BME280;5307;42.548;22.968;2023-02-14T08:51:27;95093.81;;;-0.90;100.00
10518;BME280;5307;42.548;22.968;2023-02-14T08:53:53;95091.50;;;-0.76;100.00
10518;BME280;5307;42.548;22.968;2023-02-14T08:56:20;95089.16;;;-0.77;100.00
10518;BME280;5307;42.548;22.968;2023-02-14T08:58:51;95096.22;;;-0.85;100.00
10518;BME280;5307;42.548;22.968;2023-02-14T09:01:19;95094.25;;;-0.88;100.00
10518;BME280;5307;42.548;22.968;2023-02-14T09:03:46;95088.94;;;-1.00;100.00
10518;BME280;5307;42.548;22.968;2023-02-14T09:06:15;95097.06;;;-0.69;100.00
10518;BME280;5307;42.548;22.968;2023-02-14T09:08:43;95102.78;;;-0.70;100.00
10518;BME280;5307;42.548;22.968;2023-02-14T09:11:12;95090.22;;;-0.66;100.00
10518;BME280;5307;42.548;22.968;2023-02-14T09:13:39;95095.31;;;-0.45;100.00
10518;BME280;5307;42.548;22.968;2023-02-14T09:16:09;95097.22;;;-0.46;100.00
10518;BME280;5307;42.548;22.968;2023-02-14T09:18:36;95097.22;;;-0.46;100.00
10518;BME280;5307;42.548;22.968;2023-02-14T09:21:06;95086.16;;;-0.44;100.00
10518;BME280;5307;42.548;22.968;2023-02-14T09:23:33;95083.81;;;-0.46;100.00
10518;BME280;5307;42.548;22.968;2023-02-14T09:26:00;95095.16;;;-0.37;100.00
10518;BME280;5307;42.548;22.968;2023-02-14T09:28:28;95088.25;;;-0.53;99.70
10518;BME280;5307;42.548;22.968;2023-02-14T09:30:55;95079.06;;;-0.52;100.00
10518;BME280;5307;42.548;22.968;2023-02-14T09:33:26;95083.88;;;-0.74;99.82
10518;BME280;5307;42.548;22.968;2023-02-14T09:35:53;95083.31;;;-0.67;100.00
10518;BME280;5307;42.548;22.968;2023-02-14T09:38:20;95073.94;;;-0.57;100.00
10518;BME280;5307;42.548;22.968;2023-02-14T09:40:47;95079.84;;;-0.36;100.00
10518;BME280;5307;42.548;22.968;2023-02-14T09:43:19;95074.47;;;-0.52;100.00
10518;BME280;5307;42.548;22.968;2023-02-14T09:45:53;95082.25;;;-0.47;100.00
10518;BME280;5307;42.548;22.968;2023-02-14T09:48:26;95070.94;;;-0.40;100.00
10518;BME280;5307;42.548;22.968;2023-02-14T09:51:01;95075.00;;;-0.46;100.00
10518;BME280;5307;42.548;22.968;2023-02-14T09:53:31;95069.78;;;-0.23;100.00
10518;BME280;5307;42.548;22.968;2023-02-14T09:56:03;95063.38;;;-0.35;100.00
10518;BME280;5307;42.548;22.968;2023-02-14T09:58:40;95064.50;;;-0.20;100.00
10518;BME280;5307;42.548;22.968;2023-02-14T10:01:14;95057.63;;;-0.02;100.00
10518;BME280;5307;42.548;22.968;2023-02-14T10:04:04;95055.03;;;0.02;100.00
10518;BME280;5307;42.548;22.968;2023-02-14T10:06:45;95057.38;;;0.04;100.00
10518;BME280;5307;42.548;22.968;2023-02-14T10:12:10;95048.31;;;0.12;100.00
10518;BME280;5307;42.548;22.968;2023-02-14T10:14:40;95047.53;;;0.11;100.00
10518;BME280;5307;42.548;22.968;2023-02-14T10:17:11;95042.59;;;0.13;100.00
10518;BME280;5307;42.548;22.968;2023-02-14T10:19:43;95041.31;;;0.07;100.00
10518;BME280;5307;42.548;22.968;2023-02-14T10:22:16;95032.19;;;0.12;100.00
10518;BME280;5307;42.548;22.968;2023-02-14T10:24:46;95030.19;;;0.24;100.00
10518;BME280;5307;42.548;22.968;2023-02-14T10:27:29;95029.19;;;0.33;100.00
10518;BME280;5307;42.548;22.968;2023-02-14T10:29:58;95020.72;;;0.50;100.00
10518;BME280;5307;42.548;22.968;2023-02-14T10:32:32;95008.56;;;0.37;100.00
10518;BME280;5307;42.548;22.968;2023-02-14T10:35:10;95029.56;;;0.50;100.00
10518;BME280;5307;42.548;22.968;2023-02-14T10:37:50;95032.66;;;0.52;100.00
10518;BME280;5307;42.548;22.968;2023-02-14T10:43:22;95020.59;;;0.43;100.00
10518;BME280;5307;42.548;22.968;2023-02-14T10:46:02;95031.53;;;0.34;100.00
10518;BME280;5307;42.548;22.968;2023-02-14T10:48:39;95027.28;;;0.52;100.00
10518;BME280;5307;42.548;22.968;2023-02-14T10:51:14;95027.88;;;0.62;100.00
10518;BME280;5307;42.548;22.968;2023-02-14T10:53:49;95037.47;;;0.63;100.00
10518;BME280;5307;42.548;22.968;2023-02-14T10:56:25;95025.03;;;1.16;100.00
10518;BME280;5307;42.548;22.968;2023-02-14T10:58:58;95020.00;;;1.14;100.00
10518;BME280;5307;42.548;22.968;2023-02-14T11:01:28;95023.09;;;1.39;100.00
10518;BME280;5307;42.548;22.968;2023-02-14T11:03:57;95019.75;;;1.23;100.00
10518;BME280;5307;42.548;22.968;2023-02-14T11:06:29;95028.56;;;1.43;100.00
10518;BME280;5307;42.548;22.968;2023-02-14T11:08:56;95023.22;;;1.46;100.00
10518;BME280;5307;42.548;22.968;2023-02-14T11:11:27;95021.72;;;1.49;100.00
10518;BME280;5307;42.548;22.968;2023-02-14T11:13:55;95020.94;;;1.48;100.00
10518;BME280;5307;42.548;22.968;2023-02-14T11:16:29;95009.09;;;1.53;100.00
10518;BME280;5307;42.548;22.968;2023-02-14T11:19:08;95013.16;;;1.66;100.00
10518;BME280;5307;42.548;22.968;2023-02-14T11:21:41;95006.22;;;1.65;100.00
10518;BME280;5307;42.548;22.968;2023-02-14T11:24:17;94997.72;;;1.63;99.47
10518;BME280;5307;42.548;22.968;2023-02-14T11:26:46;94999.03;;;1.73;99.21
10518;BME280;5307;42.548;22.968;2023-02-14T11:29:15;94997.47;;;1.72;99.31
10518;BME280;5307;42.548;22.968;2023-02-14T11:31:47;94992.13;;;1.75;98.64
10518;BME280;5307;42.548;22.968;2023-02-14T11:34:28;94999.97;;;1.84;98.10
10518;BME280;5307;42.548;22.968;2023-02-14T11:36:59;94986.03;;;1.78;97.93
10518;BME280;5307;42.548;22.968;2023-02-14T11:39:28;94992.13;;;1.75;97.91
10518;BME280;5307;42.548;22.968;2023-02-14T11:41:57;94978.31;;;1.77;97.16
10518;BME280;5307;42.548;22.968;2023-02-14T11:44:27;94982.84;;;1.69;96.97
10518;BME280;5307;42.548;22.968;2023-02-14T11:49:37;94987.22;;;1.81;96.83
10518;BME280;5307;42.548;22.968;2023-02-14T11:52:24;94976.03;;;1.79;96.81
10518;BME280;5307;42.548;22.968;2023-02-14T11:54:56;94978.09;;;1.89;95.56
10518;BME280;5307;42.548;22.968;2023-02-14T11:57:28;94968.56;;;1.95;95.92
10518;BME280;5307;42.548;22.968;2023-02-14T11:59:59;94974.69;;;1.92;95.36
10518;BME280;5307;42.548;22.968;2023-02-14T12:02:31;94969.25;;;1.89;94.00
10518;BME280;5307;42.548;22.968;2023-02-14T12:05:04;94962.47;;;1.98;93.79
10518;BME280;5307;42.548;22.968;2023-02-14T12:07:35;94959.34;;;1.96;94.04
10518;BME280;5307;42.548;22.968;2023-02-14T12:10:16;94960.63;;;2.06;94.08
10518;BME280;5307;42.548;22.968;2023-02-14T12:12:58;94958.25;;;2.01;93.80
10518;BME280;5307;42.548;22.968;2023-02-14T12:15:31;94956.59;;;1.93;93.66
10518;BME280;5307;42.548;22.968;2023-02-14T12:18:35;94950.22;;;2.04;93.58
10518;BME280;5307;42.548;22.968;2023-02-14T12:21:18;94957.19;;;2.09;93.04
10518;BME280;5307;42.548;22.968;2023-02-14T12:23:53;94962.53;;;2.05;91.75
10518;BME280;5307;42.548;22.968;2023-02-14T12:26:27;94942.34;;;1.92;92.62
10518;BME280;5307;42.548;22.968;2023-02-14T12:29:02;94948.66;;;2.03;92.40
10518;BME280;5307;42.548;22.968;2023-02-14T12:31:30;94938.69;;;2.07;92.37
10518;BME280;5307;42.548;22.968;2023-02-14T12:33:57;94927.94;;;2.07;91.49
10518;BME280;5307;42.548;22.968;2023-02-14T12:36:42;94932.63;;;2.14;91.01
10518;BME280;5307;42.548;22.968;2023-02-14T12:39:22;94929.84;;;2.07;91.62
10518;BME280;5307;42.548;22.968;2023-02-14T12:41:56;94927.16;;;2.07;91.33
10518;BME280;5307;42.548;22.968;2023-02-14T12:44:33;94923.38;;;2.12;89.84
10518;BME280;5307;42.548;22.968;2023-02-14T12:47:15;94919.41;;;2.02;90.66
10518;BME280;5307;42.548;22.968;2023-02-14T12:49:56;94916.00;;;2.08;90.35
10518;BME280;5307;42.548;22.968;2023-02-14T12:52:37;94921.13;;;2.17;90.70
10518;BME280;5307;42.548;22.968;2023-02-14T12:55:37;94911.31;;;2.02;91.14
10518;BME280;5307;42.548;22.968;2023-02-14T12:58:18;94906.69;;;2.02;91.72
10518;BME280;5307;42.548;22.968;2023-02-14T13:00:56;94905.81;;;1.95;91.58
10518;BME280;5307;42.548;22.968;2023-02-14T13:03:36;94910.50;;;1.98;92.17
10518;BME280;5307;42.548;22.968;2023-02-14T13:06:14;94904.38;;;2.01;91.89
10518;BME280;5307;42.548;22.968;2023-02-14T13:08:53;94904.81;;;2.06;91.22
10518;BME280;5307;42.548;22.968;2023-02-14T13:11:34;94912.84;;;1.99;91.91
10518;BME280;5307;42.548;22.968;2023-02-14T13:14:13;94912.84;;;1.99;91.62
10518;BME280;5307;42.548;22.968;2023-02-14T13:16:49;94904.38;;;2.01;90.93
10518;BME280;5307;42.548;22.968;2023-02-14T13:19:28;94911.69;;;2.00;91.56
10518;BME280;5307;42.548;22.968;2023-02-14T13:22:00;94915.97;;;2.05;91.26
10518;BME280;5307;42.548;22.968;2023-02-14T13:24:33;94910.22;;;2.06;90.94
10518;BME280;5307;42.548;22.968;2023-02-14T13:27:05;94895.56;;;2.04;91.31
10518;BME280;5307;42.548;22.968;2023-02-14T13:29:40;94905.47;;;1.96;90.51
10518;BME280;5307;42.548;22.968;2023-02-14T13:32:10;94895.78;;;1.92;90.95
10518;BME280;5307;42.548;22.968;2023-02-14T13:34:43;94894.03;;;2.06;91.47
10518;BME280;5307;42.548;22.968;2023-02-14T13:37:13;94894.75;;;2.00;91.34
10518;BME280;5307;42.548;22.968;2023-02-14T13:39:43;94895.59;;;2.07;91.45
10518;BME280;5307;42.548;22.968;2023-02-14T13:42:51;94893.66;;;2.08;91.10